Time;durP1;ratioP1;P1;durP2;ratioP2;P2;SDS_P1;SDS_P2;PMS_P1;PMS_P2;Temp;Humidity;BMP_temperature;BMP_pressure;BME280_temperature;BME280_humidity;BME280_pressure;Samples;Min_cycle;Max_cycle;Signal;HPM_P1;HPM_P2
2021/04/01 00:00:30;;;;;;;0.30;0.20;;;;;;;9.36;94.53;100537.53;5013461;28;20483;-53
2021/04/01 00:02:56;;;;;;;0.37;0.30;;;;;;;9.03;95.10;100536.38;5020285;28;20447;-53
2021/04/01 00:05:26;;;;;;;0.30;0.20;;;;;;;8.94;95.51;100526.84;5043375;28;20444;-53
2021/04/01 00:07:52;;;;;;;0.30;0.20;;;;;;;8.92;95.28;100533.94;5046556;28;20444;-52
2021/04/01 00:10:22;;;;;;;0.50;0.50;;;;;;;8.76;96.22;100525.38;5033116;28;20460;-53
2021/04/01 00:12:48;;;;;;;0.30;0.20;;;;;;;8.91;95.70;100529.56;5046475;28;20455;-57
2021/04/01 00:15:15;;;;;;;0.30;0.20;;;;;;;8.93;95.69;100526.88;5043626;28;20461;-57
2021/04/01 00:17:42;;;;;;;0.30;0.20;;;;;;;8.84;95.53;100515.50;5039284;28;20510;-57
2021/04/01 00:20:14;;;;;;;0.30;0.20;;;;;;;8.98;95.85;100520.56;5041409;28;20475;-56
2021/04/01 00:22:41;;;;;;;0.30;0.20;;;;;;;8.88;95.19;100524.28;5045837;28;20454;-57
2021/04/01 00:25:09;;;;;;;0.30;0.20;;;;;;;8.67;95.64;100511.44;5044434;28;20459;-57
2021/04/01 00:27:35;;;;;;;0.30;0.20;;;;;;;8.59;96.61;100515.06;5039369;28;20462;-57
2021/04/01 00:30:04;;;;;;;0.30;0.20;;;;;;;8.68;97.13;100513.16;5040527;28;20839;-56
2021/04/01 00:32:30;;;;;;;0.30;0.20;;;;;;;8.52;96.74;100516.09;5044589;28;20944;-56
2021/04/01 00:34:56;;;;;;;1.70;1.37;;;;;;;8.49;96.27;100515.22;5045024;28;20504;-57
2021/04/01 00:37:23;;;;;;;0.50;0.43;;;;;;;8.42;96.88;100519.78;5038995;28;20454;-57
2021/04/01 00:39:49;;;;;;;0.30;0.20;;;;;;;8.67;96.16;100511.44;5025384;28;20465;-57
2021/04/01 00:42:15;;;;;;;0.43;0.40;;;;;;;8.56;96.34;100507.19;5045766;28;20489;-57
2021/04/01 00:44:41;;;;;;;0.30;0.20;;;;;;;8.53;95.55;100512.53;5045893;28;20936;-57
2021/04/01 00:47:09;;;;;;;0.30;0.20;;;;;;;8.54;95.48;100516.94;5028318;28;20808;-57
2021/04/01 00:49:39;;;;;;;0.30;0.20;;;;;;;8.53;95.62;100514.31;5045689;28;20470;-57
2021/04/01 00:52:07;;;;;;;0.30;0.20;;;;;;;8.37;96.48;100513.69;5027283;28;20473;-57
2021/04/01 00:54:33;;;;;;;0.40;0.20;;;;;;;8.31;96.77;100511.97;5030478;28;20493;-57
2021/04/01 00:57:00;;;;;;;0.30;0.20;;;;;;;8.20;96.61;100519.19;5044800;28;20516;-57
2021/04/01 00:59:28;;;;;;;0.40;0.30;;;;;;;8.22;98.22;100508.56;5045656;28;20494;-55
2021/04/01 01:02:28;;;;;;;0.30;0.20;;;;;;;8.05;98.05;100505.31;5040301;28;20454;-55
2021/04/01 01:04:48;;;;;;;0.30;0.20;;;;;;;8.19;98.39;100508.63;5035814;28;20512;-55
2021/04/01 01:07:15;;;;;;;0.30;0.20;;;;;;;8.15;97.97;100510.44;5041005;28;20998;-56
2021/04/01 01:09:41;;;;;;;0.30;0.20;;;;;;;8.12;97.88;100507.84;5049499;28;20586;-55
2021/04/01 01:12:08;;;;;;;0.30;0.20;;;;;;;8.16;98.00;100504.25;5048096;28;20454;-55
2021/04/01 01:14:35;;;;;;;0.30;0.20;;;;;;;8.18;97.52;100510.41;5042936;28;20508;-54
2021/04/01 01:17:02;;;;;;;0.60;0.57;;;;;;;8.05;97.76;100497.38;5044769;28;20447;-54
2021/04/01 01:19:39;;;;;;;0.50;0.50;;;;;;;8.07;98.90;100499.09;5049137;28;20499;-55
2021/04/01 01:22:06;;;;;;;0.30;0.20;;;;;;;8.06;98.09;100493.81;5049390;28;20446;-55
2021/04/01 01:24:34;;;;;;;0.30;0.20;;;;;;;7.97;97.87;100490.44;5027094;28;20455;-55
2021/04/01 01:27:02;;;;;;;0.30;0.20;;;;;;;8.03;98.07;100492.97;5050488;28;20481;-55
2021/04/01 01:29:29;;;;;;;0.30;0.20;;;;;;;7.96;97.89;100493.97;5042811;28;20508;-55
2021/04/01 01:31:55;;;;;;;0.30;0.20;;;;;;;8.06;98.49;100491.19;5042909;28;20501;-55
2021/04/01 01:34:21;;;;;;;0.30;0.20;;;;;;;8.08;98.94;100499.97;5049892;28;20505;-55
2021/04/01 01:36:48;;;;;;;0.30;0.20;;;;;;;8.06;98.88;100496.47;5048880;28;21010;-55
2021/04/01 01:39:14;;;;;;;0.43;0.37;;;;;;;7.95;97.96;100494.00;5036998;28;20898;-54
2021/04/01 01:41:41;;;;;;;0.30;0.20;;;;;;;7.85;98.15;100495.91;5049212;28;20844;-55
2021/04/01 01:44:07;;;;;;;0.40;0.30;;;;;;;7.84;98.27;100502.09;5044277;28;20451;-55
2021/04/01 01:46:33;;;;;;;0.30;0.20;;;;;;;7.70;99.48;100499.63;5036115;28;20459;-55
2021/04/01 01:48:59;;;;;;;1.87;1.17;;;;;;;7.74;98.99;100497.81;5044441;28;20451;-55
2021/04/01 01:51:29;;;;;;;0.30;0.20;;;;;;;7.62;99.81;100495.34;5042049;28;20448;-55
2021/04/01 01:53:55;;;;;;;1.27;1.27;;;;;;;7.60;99.76;100487.41;5038814;28;20447;-55
2021/04/01 01:56:24;;;;;;;0.30;0.20;;;;;;;7.65;99.90;100490.00;5048711;28;20456;-55
2021/04/01 01:58:54;;;;;;;0.40;0.30;;;;;;;7.65;99.92;100496.16;5045149;28;20482;-55
2021/04/01 02:01:22;;;;;;;0.30;0.20;;;;;;;7.70;99.01;100491.69;5042174;28;20478;-55
2021/04/01 02:03:49;;;;;;;0.87;0.87;;;;;;;7.83;98.62;100484.47;5044455;28;20447;-55
2021/04/01 02:06:18;;;;;;;0.30;0.20;;;;;;;7.73;98.36;100496.06;5048456;28;20505;-55
2021/04/01 02:08:46;;;;;;;0.30;0.20;;;;;;;7.50;99.29;100500.78;5046414;28;20447;-55
2021/04/01 02:11:13;;;;;;;0.40;0.30;;;;;;;7.68;98.60;100496.13;5041871;28;20494;-55
2021/04/01 02:13:39;;;;;;;0.30;0.20;;;;;;;7.68;98.84;100503.19;5043491;28;20448;-55
2021/04/01 02:16:06;;;;;;;0.30;0.20;;;;;;;7.65;98.63;100496.16;5048262;28;20451;-55
2021/04/01 02:18:32;;;;;;;0.30;0.20;;;;;;;7.59;98.90;100495.38;5045912;28;20482;-55
2021/04/01 02:21:00;;;;;;;1.70;1.37;;;;;;;7.64;98.51;100496.19;5041399;28;20979;-55
2021/04/01 02:23:31;;;;;;;4.20;2.13;;;;;;;7.56;98.95;100508.66;5042899;28;20456;-55
2021/04/01 02:25:59;;;;;;;0.30;0.20;;;;;;;7.55;99.94;100501.63;5048203;28;20486;-54
2021/04/01 02:28:27;;;;;;;0.30;0.20;;;;;;;7.50;98.70;100499.00;5048065;28;20454;-55
2021/04/01 02:30:59;;;;;;;0.30;0.30;;;;;;;7.36;99.29;100503.59;5028360;28;20995;-55
2021/04/01 02:33:27;;;;;;;0.30;0.20;;;;;;;7.39;99.44;100503.53;5041331;28;20440;-55
2021/04/01 02:35:54;;;;;;;0.30;0.20;;;;;;;7.36;99.32;100498.31;5046228;28;20937;-55
2021/04/01 02:38:21;;;;;;;0.30;0.20;;;;;;;7.32;99.76;100500.13;5047673;28;20509;-55
2021/04/01 02:40:48;;;;;;;0.30;0.20;;;;;;;7.45;99.19;100500.84;5042197;28;20473;-55
2021/04/01 02:45:56;;;;;;;0.30;0.20;;;;;;;7.23;100.00;100500.22;5043677;28;20978;-55
2021/04/01 02:48:22;;;;;;;0.30;0.20;;;;;;;7.24;100.00;100498.44;5034758;28;20493;-55
2021/04/01 02:50:49;;;;;;;0.30;0.20;;;;;;;7.43;100.00;100497.34;5043763;28;20968;-55
2021/04/01 02:53:15;;;;;;;0.30;0.20;;;;;;;7.37;99.35;100492.13;5039708;28;20877;-55
2021/04/01 02:55:41;;;;;;;0.40;0.20;;;;;;;7.24;99.20;100488.75;5044918;28;20473;-55
2021/04/01 02:58:08;;;;;;;0.30;0.20;;;;;;;7.65;98.32;100492.63;5040380;28;20491;-55
2021/04/01 03:00:37;;;;;;;0.30;0.20;;;;;;;7.47;98.64;100482.31;5042645;28;20823;-55
2021/04/01 03:03:12;;;;;;;0.30;0.20;;;;;;;7.27;99.43;100475.50;5047532;28;20448;-55
2021/04/01 03:05:39;;;;;;;0.30;0.20;;;;;;;7.22;99.49;100482.59;5045747;28;20462;-55
2021/04/01 03:08:05;;;;;;;0.40;0.30;;;;;;;7.29;98.43;100484.28;5040616;28;20442;-55
2021/04/01 03:10:31;;;;;;;0.30;0.20;;;;;;;7.58;97.83;100483.06;5040725;28;20471;-55
2021/04/01 03:12:57;;;;;;;0.40;0.33;;;;;;;7.33;98.97;100480.72;5047431;28;20458;-55
2021/04/01 03:15:24;;;;;;;0.30;0.20;;;;;;;7.21;99.71;100480.84;5046925;28;20504;-55
2021/04/01 03:17:50;;;;;;;0.77;0.77;;;;;;;7.21;98.57;100474.69;5040083;28;20447;-55
2021/04/01 03:20:16;;;;;;;0.30;0.20;;;;;;;7.14;100.00;100476.56;5040453;28;20475;-55
2021/04/01 03:22:42;;;;;;;0.30;0.20;;;;;;;7.15;100.00;100480.06;5047318;28;20448;-55
2021/04/01 03:25:11;;;;;;;0.40;0.40;;;;;;;7.26;99.89;100481.66;5046422;28;20451;-55
2021/04/01 03:27:38;;;;;;;0.30;0.20;;;;;;;7.23;99.55;100483.47;5045567;28;20513;-55
2021/04/01 03:30:07;;;;;;;0.30;0.20;;;;;;;7.35;98.94;100485.97;5046392;28;20475;-56
2021/04/01 03:32:35;;;;;;;0.30;0.20;;;;;;;7.06;99.43;100473.97;5026667;28;20454;-56
2021/04/01 03:35:10;;;;;;;0.30;0.20;;;;;;;7.14;99.20;100487.13;5040267;28;20528;-55
2021/04/01 03:37:36;;;;;;;0.30;0.20;;;;;;;7.06;100.00;100487.19;5044761;28;20448;-55
2021/04/01 03:40:05;;;;;;;0.30;0.20;;;;;;;7.13;100.00;100488.91;5021863;28;20496;-55
2021/04/01 03:42:32;;;;;;;0.30;0.20;;;;;;;7.11;99.85;100493.28;5044689;28;20525;-55
2021/04/01 03:44:59;;;;;;;0.30;0.20;;;;;;;7.09;99.74;100492.44;5045627;28;20501;-55
2021/04/01 03:47:25;;;;;;;0.30;0.20;;;;;;;6.96;100.00;100485.53;5029054;28;20975;-55
2021/04/01 03:49:51;;;;;;;0.30;0.20;;;;;;;6.92;100.00;100486.47;5046584;28;20467;-55
2021/04/01 03:52:18;;;;;;;0.30;0.20;;;;;;;6.88;100.00;100492.69;5041637;28;20508;-55
2021/04/01 03:54:48;;;;;;;0.30;0.20;;;;;;;7.07;100.00;100483.66;5031233;28;20447;-55
2021/04/01 03:57:16;;;;;;;0.30;0.20;;;;;;;7.21;100.00;100477.34;5042319;28;20448;-55
2021/04/01 04:05:05;;;;;;;0.30;0.20;;;;;;;7.39;100.00;100490.31;5039320;28;20524;-55
2021/04/01 04:10:20;;;;;;;0.40;0.33;;;;;;;7.24;100.00;100496.66;5044673;28;20455;-55
2021/04/01 04:15:17;;;;;;;0.30;0.20;;;;;;;7.25;100.00;100505.47;5043425;28;20450;-55
2021/04/01 04:17:43;;;;;;;0.30;0.20;;;;;;;7.25;100.00;100505.47;5038930;28;20806;-55
2021/04/01 04:20:10;;;;;;;0.37;0.30;;;;;;;7.14;100.00;100500.34;5041643;28;20886;-55
2021/04/01 04:22:36;;;;;;;0.63;0.63;;;;;;;7.10;100.00;100496.84;5045856;28;20451;-55
2021/04/01 04:25:06;;;;;;;0.30;0.20;;;;;;;7.28;100.00;100498.41;5042806;28;20455;-55
2021/04/01 04:30:02;;;;;;;0.30;0.20;;;;;;;7.22;100.00;100500.22;5044610;28;20870;-54
2021/04/01 04:32:33;;;;;;;0.30;0.20;;;;;;;7.18;100.00;100495.88;5038687;28;20512;-54
2021/04/01 04:34:59;;;;;;;0.30;0.20;;;;;;;7.22;100.00;100501.09;5039537;28;20498;-54
2021/04/01 04:37:26;;;;;;;0.30;0.20;;;;;;;7.17;100.00;100496.78;5045895;28;20471;-54
2021/04/01 04:39:52;;;;;;;0.30;0.20;;;;;;;7.19;99.93;100489.69;5032563;28;20495;-54
2021/04/01 04:42:19;;;;;;;0.30;0.20;;;;;;;7.20;100.00;100489.69;5044389;28;20510;-54
2021/04/01 04:44:45;;;;;;;0.30;0.20;;;;;;;7.22;100.00;100487.03;5045572;28;20462;-54
2021/04/01 04:47:11;;;;;;;0.40;0.40;;;;;;;7.28;100.00;100503.69;5028148;28;20801;-54
2021/04/01 04:49:37;;;;;;;0.30;0.20;;;;;;;7.19;100.00;100501.16;5045516;28;20501;-54
2021/04/01 04:52:05;;;;;;;0.30;0.20;;;;;;;7.29;100.00;100494.88;5039926;28;20450;-54
2021/04/01 04:54:32;;;;;;;0.30;0.20;;;;;;;7.47;99.44;100501.69;5031349;28;20456;-54
2021/04/01 04:57:02;;;;;;;0.30;0.20;;;;;;;7.47;99.46;100504.34;5043983;28;20447;-54
2021/04/01 04:59:35;;;;;;;1.37;1.37;;;;;;;7.38;99.83;100500.03;5045648;28;20505;-54
2021/04/01 05:07:18;;;;;;;0.30;0.20;;;;;;;7.33;100.00;100495.69;5038800;28;20448;-54
2021/04/01 05:09:44;;;;;;;0.30;0.20;;;;;;;7.77;98.41;100502.19;5045432;28;20886;-54
2021/04/01 05:12:11;;;;;;;0.30;0.20;;;;;;;7.23;100.00;100510.78;5045463;28;20454;-54
2021/04/01 05:14:37;;;;;;;0.30;0.20;;;;;;;7.30;100.00;100503.69;5036988;28;20960;-54
2021/04/01 05:17:03;;;;;;;0.30;0.20;;;;;;;7.15;100.00;100510.03;5038658;28;20455;-54
2021/04/01 05:19:31;;;;;;;0.30;0.20;;;;;;;7.27;100.00;100501.94;5038624;28;20491;-54
2021/04/01 05:24:26;;;;;;;0.30;0.17;;;;;;;7.38;100.00;100512.38;5035559;28;20458;-54
2021/04/01 05:29:34;;;;;;;0.30;0.20;;;;;;;7.67;99.98;100506.72;5044321;28;20547;-54
2021/04/01 05:32:03;;;;;;;0.30;0.20;;;;;;;7.57;100.00;100513.03;5045196;28;20450;-54
2021/04/01 05:34:29;;;;;;;0.30;0.20;;;;;;;7.65;100.00;100514.69;5041095;28;20458;-54
2021/04/01 05:36:58;;;;;;;0.30;0.20;;;;;;;7.52;100.00;100515.72;5037981;28;20455;-54
2021/04/01 05:39:28;;;;;;;0.30;0.20;;;;;;;7.56;100.00;100514.81;5032594;28;20554;-54
2021/04/01 05:41:56;;;;;;;0.30;0.20;;;;;;;7.62;100.00;100512.06;5042016;28;20453;-54
2021/04/01 05:44:27;;;;;;;0.30;0.20;;;;;;;7.70;100.00;100518.16;5042145;28;20932;-54
2021/04/01 06:04:01;;;;;;;0.30;0.20;;;;;;;8.10;100.00;100536.13;5047132;28;20513;-54
2021/04/01 06:06:40;;;;;;;0.47;0.47;;;;;;;8.20;100.00;100534.19;5048639;28;20961;-54
2021/04/01 06:09:21;;;;;;;0.30;0.20;;;;;;;8.23;100.00;100528.88;5048357;28;20500;-54
2021/04/01 06:11:52;;;;;;;0.30;0.20;;;;;;;8.30;100.00;100527.88;5032707;28;20442;-54
2021/04/01 06:14:55;;;;;;;0.30;0.20;;;;;;;8.50;100.00;100525.84;5041479;28;20447;-54
2021/04/01 06:17:24;;;;;;;0.30;0.20;;;;;;;8.66;100.00;100525.56;5021763;28;20498;-54
2021/04/01 06:19:54;;;;;;;0.60;0.60;;;;;;;8.67;100.00;100527.31;5046509;28;20948;-54
2021/04/01 06:22:22;;;;;;;0.30;0.20;;;;;;;8.73;100.00;100524.56;5047817;28;20443;-54
2021/04/01 06:24:49;;;;;;;1.33;1.23;;;;;;;8.79;100.00;100522.69;5043825;28;20880;-54
2021/04/01 06:27:31;;;;;;;0.30;0.20;;;;;;;8.98;99.60;100528.53;5041467;28;20463;-54
2021/04/01 06:30:25;;;;;;;0.30;0.20;;;;;;;9.18;99.22;100528.13;5043379;28;20518;-54
2021/04/01 06:33:07;;;;;;;0.30;0.20;;;;;;;9.46;97.32;100536.47;5031701;28;20463;-54
2021/04/01 06:35:42;;;;;;;0.30;0.20;;;;;;;9.64;95.35;100525.47;5039942;28;20497;-54
2021/04/01 06:40:47;;;;;;;0.30;0.20;;;;;;;9.67;95.09;100537.78;5029077;28;20467;-54
2021/04/01 06:43:34;;;;;;;0.30;0.20;;;;;;;9.80;94.64;100540.16;5040650;28;20506;-54
2021/04/01 06:46:07;;;;;;;0.50;0.50;;;;;;;9.99;93.86;100537.09;5043014;28;20534;-54
2021/04/01 06:51:19;;;;;;;0.30;0.20;;;;;;;10.05;93.78;100536.97;5048063;28;20516;-54
2021/04/01 06:54:02;;;;;;;1.03;1.03;;;;;;;10.07;95.05;100540.44;5032831;28;20966;-54
2021/04/01 07:02:32;;;;;;;0.30;0.20;;;;;;;10.44;95.35;100542.31;5035373;28;20435;-54
2021/04/01 07:05:17;;;;;;;0.30;0.20;;;;;;;10.61;94.45;100548.06;5039634;28;20446;-54
2021/04/01 07:07:51;;;;;;;0.30;0.20;;;;;;;10.71;95.14;100538.97;5040698;28;20501;-54
2021/04/01 07:10:34;;;;;;;0.30;0.20;;;;;;;10.96;94.41;100547.16;5044255;28;20964;-54
2021/04/01 07:13:01;;;;;;;0.30;0.20;;;;;;;11.20;93.12;100545.66;5047135;28;20463;-54
2021/04/01 07:15:28;;;;;;;0.30;0.20;;;;;;;11.35;90.52;100539.03;5045570;28;20492;-54
2021/04/01 07:48:13;;;;;;;0.30;0.20;;;;;;;13.34;80.25;100537.19;5046982;28;20455;-54
2021/04/01 07:50:42;;;;;;;0.30;0.20;;;;;;;13.30;79.83;100531.09;5042489;28;20474;-54
2021/04/01 07:53:12;;;;;;;0.30;0.20;;;;;;;13.25;79.62;100534.84;5039651;28;20459;-54
2021/04/01 08:03:58;;;;;;;0.40;0.30;;;;;;;13.66;77.69;100524.44;5041313;28;20505;-54
2021/04/01 08:06:29;;;;;;;0.30;0.20;;;;;;;13.57;77.61;100517.66;5051986;28;20504;-54
2021/04/01 08:09:15;;;;;;;0.30;0.20;;;;;;;13.96;76.81;100528.63;5040623;28;20995;-54
2021/04/01 08:11:47;;;;;;;0.30;0.20;;;;;;;14.09;75.83;100535.22;5029868;28;20446;-52
2021/04/01 08:14:18;;;;;;;0.40;0.30;;;;;;;14.40;76.26;100529.56;5039756;28;20447;-52
2021/04/01 08:16:58;;;;;;;0.30;0.20;;;;;;;14.46;76.03;100528.44;5042542;28;21015;-52
2021/04/01 08:19:27;;;;;;;0.30;0.20;;;;;;;14.64;76.19;100524.13;5045934;28;20491;-53
2021/04/01 08:22:14;;;;;;;0.30;0.20;;;;;;;14.79;74.73;100528.84;5046253;28;20524;-53
2021/04/01 08:25:05;;;;;;;0.40;0.20;;;;;;;14.85;74.61;100525.06;5034096;28;20446;-52
2021/04/01 08:28:12;;;;;;;0.43;0.40;;;;;;;14.76;73.94;100529.84;5028956;28;20941;-53
2021/04/01 08:33:56;;;;;;;0.30;0.20;;;;;;;14.89;73.69;100521.31;5038640;28;20451;-55
2021/04/01 08:36:48;;;;;;;0.40;0.40;;;;;;;14.96;73.07;100518.31;5038748;28;20486;-53
2021/04/01 08:39:36;;;;;;;0.40;0.40;;;;;;;15.05;73.06;100517.91;5040806;28;20487;-53
2021/04/01 08:42:59;;;;;;;0.30;0.20;;;;;;;15.26;72.59;100520.59;5027487;28;20538;-56
2021/04/01 08:46:15;;;;;;;0.40;0.20;;;;;;;15.52;72.59;100527.47;5037746;28;20547;-56
2021/04/01 08:49:38;;;;;;;0.30;0.20;;;;;;;15.64;72.19;100522.47;5028230;28;20534;-56
2021/04/01 08:52:41;;;;;;;0.30;0.20;;;;;;;15.43;71.94;100517.16;5027338;28;20476;-56
2021/04/01 08:55:15;;;;;;;0.40;0.30;;;;;;;15.95;71.23;100534.44;5044864;28;20443;-56
2021/04/01 08:58:08;;;;;;;0.30;0.20;;;;;;;15.95;70.85;100526.41;5045879;28;20451;-56
2021/04/01 09:00:41;;;;;;;0.33;0.20;;;;;;;16.16;70.28;100517.31;5032938;28;20494;-56
2021/04/01 09:03:08;;;;;;;0.40;0.20;;;;;;;16.34;69.03;100512.91;5038813;28;20820;-56
2021/04/01 09:05:34;;;;;;;1.23;1.03;;;;;;;16.69;68.54;100513.84;5041150;28;20513;-56
2021/04/01 09:08:03;;;;;;;0.50;0.50;;;;;;;16.84;67.15;100512.22;5045287;28;20551;-56
2021/04/01 09:10:38;;;;;;;0.40;0.20;;;;;;;16.73;68.10;100519.97;5043430;28;20473;-56
2021/04/01 09:13:16;;;;;;;1.53;1.43;;;;;;;17.08;66.86;100520.84;5038329;28;20446;-56
2021/04/01 09:18:21;;;;;;;0.40;0.20;;;;;;;17.24;65.52;100505.66;5043521;28;20497;-56
2021/04/01 09:20:49;;;;;;;0.40;0.20;;;;;;;17.18;65.72;100506.84;5045277;28;20544;-56
2021/04/01 09:23:32;;;;;;;0.40;0.30;;;;;;;17.55;65.97;100509.41;5024319;28;20495;-56
2021/04/01 09:25:59;;;;;;;2.20;0.87;;;;;;;17.75;65.18;100501.16;5044026;28;20525;-56
2021/04/01 09:28:30;;;;;;;0.40;0.20;;;;;;;17.75;64.94;100502.03;5045276;28;20507;-55
2021/04/01 09:30:59;;;;;;;1.90;0.87;;;;;;;18.11;64.77;100506.31;5042577;28;20470;-56
2021/04/01 09:33:29;;;;;;;0.40;0.20;;;;;;;18.00;63.18;100497.97;5042402;28;20456;-56
2021/04/01 09:36:22;;;;;;;0.50;0.40;;;;;;;18.10;64.59;100492.97;5048135;28;20454;-56
2021/04/01 09:38:52;;;;;;;0.40;0.20;;;;;;;18.02;63.20;100488.84;5043555;28;20481;-56
2021/04/01 09:41:29;;;;;;;0.90;0.90;;;;;;;18.26;63.59;100494.69;5039421;28;20474;-56
2021/04/01 09:43:56;;;;;;;0.40;0.20;;;;;;;18.58;63.46;100492.81;5048690;28;20448;-56
2021/04/01 09:46:23;;;;;;;0.93;0.93;;;;;;;18.75;61.40;100485.59;5044665;28;20471;-56
2021/04/01 09:49:13;;;;;;;0.40;0.20;;;;;;;18.78;61.43;100496.22;5048739;28;20467;-56
2021/04/01 09:51:41;;;;;;;0.67;0.67;;;;;;;19.01;61.25;100490.28;5048451;28;20451;-56
2021/04/01 09:54:16;;;;;;;0.60;0.57;;;;;;;19.03;61.19;100490.19;5045819;28;20958;-57
2021/04/01 09:56:53;;;;;;;0.77;0.77;;;;;;;19.31;59.46;100478.59;5041425;28;20442;-56
2021/04/01 09:59:22;;;;;;;0.97;0.97;;;;;;;19.26;59.69;100480.72;5041977;28;20495;-56
2021/04/01 10:02:02;;;;;;;0.40;0.30;;;;;;;19.39;59.63;100477.19;5029747;28;20469;-56
2021/04/01 10:04:30;;;;;;;0.63;0.60;;;;;;;19.47;59.17;100477.59;5041567;28;20925;-54
2021/04/01 10:06:56;;;;;;;2.87;1.17;;;;;;;19.73;57.90;100472.38;5045727;28;20507;-54
2021/04/01 10:09:25;;;;;;;0.40;0.37;;;;;;;19.79;58.27;100474.72;5048333;28;20536;-54
2021/04/01 10:11:59;;;;;;;0.50;0.50;;;;;;;20.01;57.48;100468.78;5044866;28;20454;-54
2021/04/01 10:14:27;;;;;;;2.60;2.50;;;;;;;20.20;57.21;100465.75;5041168;28;20923;-54
2021/04/01 10:17:14;;;;;;;0.60;0.60;;;;;;;20.18;56.86;100468.56;5041739;28;20563;-54
2021/04/01 10:19:42;;;;;;;6.10;2.90;;;;;;;20.27;55.01;100465.25;5041967;28;20491;-54
2021/04/01 10:22:28;;;;;;;2.73;1.63;;;;;;;20.61;55.48;100457.63;5041350;28;20482;-54
2021/04/01 10:25:25;;;;;;;1.00;1.00;;;;;;;20.63;53.16;100459.25;5034285;28;20447;-54
2021/04/01 10:28:03;;;;;;;1.07;1.07;;;;;;;20.68;52.12;100458.94;5047702;28;20530;-54
2021/04/01 10:30:32;;;;;;;7.63;3.37;;;;;;;21.00;50.68;100463.03;5048099;28;20804;-54
2021/04/01 10:33:30;;;;;;;0.50;0.40;;;;;;;21.01;50.39;100461.19;5043054;28;20478;-54
2021/04/01 10:36:02;;;;;;;3.17;2.10;;;;;;;21.06;47.51;100463.56;5029538;28;20490;-54
2021/04/01 10:38:29;;;;;;;6.73;1.70;;;;;;;20.99;47.30;100465.84;5040150;28;20794;-54
2021/04/01 10:41:00;;;;;;;5.90;1.07;;;;;;;21.05;47.60;100456.44;5043430;28;21006;-54
2021/04/01 10:43:33;;;;;;;0.73;0.73;;;;;;;21.20;46.83;100458.06;5041178;28;20447;-54
2021/04/01 10:46:00;;;;;;;5.20;4.27;;;;;;;21.20;46.13;100461.63;5042515;28;20486;-54
2021/04/01 10:48:45;;;;;;;0.63;0.63;;;;;;;21.39;47.06;100449.56;5047715;28;20546;-53
2021/04/01 10:51:12;;;;;;;6.10;4.77;;;;;;;21.53;46.90;100450.31;5047672;28;20888;-56
2021/04/01 10:53:42;;;;;;;0.40;0.30;;;;;;;21.63;45.94;100449.63;5032235;28;20504;-57
2021/04/01 10:56:12;;;;;;;5.20;3.70;;;;;;;21.64;46.58;100449.53;5040573;28;20989;-57
2021/04/01 10:59:07;;;;;;;0.93;0.83;;;;;;;21.68;45.76;100452.91;5045904;28;20804;-57
2021/04/01 11:01:42;;;;;;;1.27;1.27;;;;;;;21.88;45.06;100444.19;5024758;28;20550;-57
2021/04/01 11:04:10;;;;;;;0.57;0.57;;;;;;;21.96;45.22;100443.63;5040634;28;20452;-57
2021/04/01 11:06:37;;;;;;;4.50;2.70;;;;;;;21.93;44.49;100443.84;5027713;28;20447;-57
2021/04/01 11:09:05;;;;;;;2.83;2.53;;;;;;;21.98;44.36;100439.81;5040502;28;20443;-54
2021/04/01 11:11:42;;;;;;;0.40;0.30;;;;;;;22.19;44.57;100440.09;5045821;28;20451;-54
2021/04/01 11:14:08;;;;;;;0.77;0.77;;;;;;;22.21;44.54;100438.16;5046957;28;20449;-52
2021/04/01 11:16:36;;;;;;;3.60;2.73;;;;;;;22.23;43.67;100438.91;5042861;28;20446;-53
2021/04/01 11:19:04;;;;;;;2.43;2.33;;;;;;;22.32;42.00;100440.03;5040096;28;20557;-53
2021/04/01 11:21:33;;;;;;;0.80;0.80;;;;;;;22.41;40.73;100437.53;5044494;28;20448;-53
2021/04/01 11:24:00;;;;;;;0.40;0.30;;;;;;;22.42;41.22;100438.38;5025429;28;20510;-52
2021/04/01 11:26:27;;;;;;;1.27;1.17;;;;;;;22.45;40.21;100440.84;5043090;28;20458;-53
2021/04/01 11:28:54;;;;;;;1.47;1.23;;;;;;;22.52;40.23;100442.13;5040310;28;20504;-53
2021/04/01 11:31:22;;;;;;;1.77;1.67;;;;;;;22.59;39.79;100435.25;5042816;28;20522;-53
2021/04/01 11:33:51;;;;;;;0.40;0.30;;;;;;;22.74;38.68;100431.38;5045214;28;20455;-53
2021/04/01 11:36:22;;;;;;;1.23;1.13;;;;;;;22.76;39.24;100431.28;5044831;28;20443;-53
2021/04/01 11:38:58;;;;;;;12.70;1.13;;;;;;;22.83;38.70;100435.25;5034439;28;20509;-53
2021/04/01 11:41:48;;;;;;;0.60;0.60;;;;;;;22.85;39.51;100432.41;5046865;28;20790;-52
2021/04/01 11:44:19;;;;;;;0.50;0.30;;;;;;;22.87;39.21;100427.75;5042993;28;20854;-52
2021/04/01 11:46:46;;;;;;;0.50;0.40;;;;;;;23.04;38.46;100421.91;5034191;28;20844;-53
2021/04/01 11:49:12;;;;;;;2.77;1.27;;;;;;;22.93;38.83;100422.72;5042086;28;20447;-53
2021/04/01 11:51:39;;;;;;;1.83;1.70;;;;;;;23.02;38.27;100419.28;5045944;28;20452;-53
2021/04/01 11:54:11;;;;;;;0.63;0.63;;;;;;;22.87;37.12;100415.03;5042119;28;20541;-52
2021/04/01 11:56:44;;;;;;;0.50;0.40;;;;;;;23.01;38.25;100419.41;5039795;28;20438;-53
2021/04/01 11:59:11;;;;;;;3.53;2.80;;;;;;;23.11;37.60;100412.28;5040764;28;20487;-53
2021/04/01 12:01:57;;;;;;;7.60;2.17;;;;;;;23.02;36.22;100411.13;5046071;28;20463;-53
2021/04/01 12:04:27;;;;;;;0.50;0.20;;;;;;;23.08;35.51;100403.53;5046454;28;20450;-52
2021/04/01 12:06:54;;;;;;;1.60;1.50;;;;;;;23.23;35.43;100405.03;5041432;28;20496;-52
2021/04/01 12:09:20;;;;;;;1.03;0.90;;;;;;;23.29;34.38;100402.66;5039170;28;20468;-53
2021/04/01 12:11:47;;;;;;;0.50;0.30;;;;;;;23.23;33.65;100389.59;5044042;28;20447;-53
2021/04/01 12:14:15;;;;;;;2.30;1.80;;;;;;;23.26;33.15;100389.34;5046270;28;20471;-53
2021/04/01 12:16:42;;;;;;;0.50;0.40;;;;;;;23.32;32.12;100398.88;5041840;28;20455;-53
2021/04/01 12:19:09;;;;;;;1.80;1.70;;;;;;;23.41;33.15;100391.81;5038687;28;21074;-53
2021/04/01 12:21:36;;;;;;;1.67;1.03;;;;;;;23.44;32.51;100397.03;5043446;28;20455;-53
2021/04/01 12:24:04;;;;;;;0.50;0.30;;;;;;;23.31;33.40;100383.59;5022599;28;20457;-52
2021/04/01 12:26:45;;;;;;;3.50;2.40;;;;;;;23.27;30.42;100382.06;5041609;28;20454;-52
2021/04/01 12:29:12;;;;;;;0.50;0.40;;;;;;;23.33;32.35;100389.75;5038698;28;20439;-52
2021/04/01 12:31:41;;;;;;;0.50;0.37;;;;;;;23.31;32.47;100381.72;5040794;28;20959;-52
2021/04/01 12:34:11;;;;;;;0.40;0.20;;;;;;;23.44;31.64;100375.31;5045838;28;20451;-52
2021/04/01 12:36:41;;;;;;;0.50;0.30;;;;;;;23.46;31.29;100368.78;5044074;28;20466;-52
2021/04/01 12:39:09;;;;;;;10.73;3.93;;;;;;;23.57;32.01;100368.81;5031262;28;20475;-52
2021/04/01 12:41:38;;;;;;;0.80;0.80;;;;;;;23.50;31.31;100374.81;5045475;28;20455;-52
2021/04/01 12:44:04;;;;;;;5.20;1.43;;;;;;;23.57;31.60;100370.59;5040228;28;20454;-52
2021/04/01 12:46:42;;;;;;;1.63;1.03;;;;;;;23.59;30.39;100364.13;5033419;28;20464;-52
2021/04/01 12:49:11;;;;;;;0.40;0.20;;;;;;;23.59;31.25;100366.81;5041946;28;20504;-52
2021/04/01 12:51:45;;;;;;;1.50;0.70;;;;;;;23.48;31.11;100360.50;5037051;28;20455;-52
2021/04/01 12:54:19;;;;;;;0.60;0.60;;;;;;;23.49;30.23;100364.94;5032937;28;20505;-52
2021/04/01 12:56:56;;;;;;;0.47;0.30;;;;;;;23.48;32.47;100357.78;5045719;28;20456;-52
2021/04/01 12:59:39;;;;;;;1.03;1.03;;;;;;;23.60;31.42;100354.13;5045505;28;20502;-52
2021/04/01 13:02:17;;;;;;;0.40;0.20;;;;;;;23.63;29.99;100352.00;5042295;28;20442;-54
2021/04/01 13:04:58;;;;;;;1.50;1.40;;;;;;;23.51;32.61;100362.97;5043003;28;20439;-55
2021/04/01 13:07:50;;;;;;;0.40;0.20;;;;;;;23.60;32.76;100349.56;5043079;28;20443;-55
2021/04/01 13:12:49;;;;;;;0.73;0.73;;;;;;;23.66;30.12;100348.16;5049309;28;20451;-54
2021/04/01 13:15:16;;;;;;;0.50;0.30;;;;;;;23.68;30.50;100343.47;5047555;28;20450;-54
2021/04/01 13:17:42;;;;;;;0.83;0.83;;;;;;;23.78;30.10;100349.88;5042435;28;20825;-55
2021/04/01 13:20:12;;;;;;;0.50;0.40;;;;;;;23.70;30.37;100346.06;5043664;28;20500;-55
2021/04/01 13:23:25;;;;;;;0.40;0.30;;;;;;;23.60;28.90;100345.97;5049011;28;20605;-55
2021/04/01 13:25:31;;;;;;;1.67;1.60;;;;;;;23.74;28.87;100343.00;5047038;28;20509;-54
2021/04/01 13:28:06;;;;;;;0.40;0.30;;;;;;;23.72;29.06;100341.41;5044733;28;20447;-54
2021/04/01 13:30:36;;;;;;;0.50;0.47;;;;;;;23.68;30.44;100337.19;5042292;28;20523;-54